Time;durP1;ratioP1;P1;durP2;ratioP2;P2;SDS_P1;SDS_P2;PMS_P1;PMS_P2;Temp;Humidity;BMP_temperature;BMP_pressure;BME280_temperature;BME280_humidity;BME280_pressure;Samples;Min_cycle;Max_cycle;Signal;HPM_P1;HPM_P2
2022/04/07 00:01:03;;;;;;;;;;;20.40;42.70;;;;;;5046730;28;19912;-59
2022/04/07 00:03:29;;;;;;;;;;;20.30;42.70;;;;;;5022810;28;19924;-59
2022/04/07 00:05:55;;;;;;;;;;;20.40;42.90;;;;;;5042183;28;19924;-59
2022/04/07 00:08:20;;;;;;;;;;;20.30;42.80;;;;;;5030893;28;19962;-59
2022/04/07 00:10:48;;;;;;;;;;;20.30;42.80;;;;;;5027185;28;20266;-59
2022/04/07 00:13:13;;;;;;;;;;;20.30;42.90;;;;;;5042941;28;19921;-59
2022/04/07 00:15:39;;;;;;;;;;;20.20;42.90;;;;;;5025942;28;20250;-59
2022/04/07 00:18:06;;;;;;;;;;;20.30;42.90;;;;;;5043643;28;19956;-59
2022/04/07 00:20:31;;;;;;;;;;;20.30;42.90;;;;;;5027648;28;19992;-59
2022/04/07 00:22:57;;;;;;;;;;;20.30;42.90;;;;;;5058592;28;19935;-59
2022/04/07 00:25:23;;;;;;;;;;;20.20;42.90;;;;;;5046647;28;19922;-61
2022/04/07 00:27:48;;;;;;;;;;;20.20;42.80;;;;;;5050696;28;19993;-60
2022/04/07 00:30:17;;;;;;;;;;;20.20;42.70;;;;;;5060638;28;19924;-60
2022/04/07 00:32:42;;;;;;;;;;;20.20;42.90;;;;;;5062350;28;19957;-60
2022/04/07 00:35:08;;;;;;;;;;;20.20;42.80;;;;;;5043694;28;20291;-60
2022/04/07 00:37:34;;;;;;;;;;;20.20;42.80;;;;;;5065623;28;19921;-60
2022/04/07 00:39:59;;;;;;;;;;;20.20;42.90;;;;;;5048499;28;20380;-60
2022/04/07 00:42:24;;;;;;;;;;;20.10;42.90;;;;;;5031962;28;20372;-60
2022/04/07 00:44:50;;;;;;;;;;;20.10;43.00;;;;;;5063459;28;20308;-60
2022/04/07 00:47:15;;;;;;;;;;;20.10;43.00;;;;;;5045565;28;19924;-60
2022/04/07 00:49:41;;;;;;;;;;;20.10;43.00;;;;;;5064201;28;19920;-60
2022/04/07 00:52:07;;;;;;;;;;;20.10;43.00;;;;;;5046528;28;19913;-60
2022/04/07 00:54:32;;;;;;;;;;;20.00;42.90;;;;;;5061922;28;20341;-60
2022/04/07 00:56:58;;;;;;;;;;;20.00;43.10;;;;;;5065216;28;19974;-60
2022/04/07 00:59:23;;;;;;;;;;;20.00;43.10;;;;;;5047376;28;19919;-60
2022/04/07 01:01:48;;;;;;;;;;;20.00;43.10;;;;;;5048488;28;19919;-60
2022/04/07 01:04:14;;;;;;;;;;;20.00;43.10;;;;;;5058947;28;20403;-60
2022/04/07 01:06:40;;;;;;;;;;;20.00;43.00;;;;;;5065080;28;20342;-60
2022/04/07 01:09:06;;;;;;;;;;;20.00;43.00;;;;;;5043723;28;19925;-60
2022/04/07 01:11:31;;;;;;;;;;;20.00;43.10;;;;;;5047396;28;20352;-60
2022/04/07 01:13:57;;;;;;;;;;;20.00;43.00;;;;;;5042879;28;19958;-60
2022/04/07 01:16:25;;;;;;;;;;;20.00;42.90;;;;;;5063857;28;19966;-60
2022/04/07 01:18:51;;;;;;;;;;;20.00;42.90;;;;;;5067170;28;20491;-60
2022/04/07 01:21:17;;;;;;;;;;;20.00;43.10;;;;;;5066590;28;20011;-60
2022/04/07 01:23:52;;;;;;;;;;;20.00;43.30;;;;;;5041643;28;19913;-60
2022/04/07 01:26:17;;;;;;;;;;;20.00;43.40;;;;;;5045532;28;19920;-60
2022/04/07 01:28:47;;;;;;;;;;;20.10;43.20;;;;;;5048525;28;19917;-60
2022/04/07 01:31:12;;;;;;;;;;;20.30;43.10;;;;;;5063184;28;20332;-60
2022/04/07 01:33:38;;;;;;;;;;;20.50;42.80;;;;;;5041964;28;19955;-60
2022/04/07 01:36:03;;;;;;;;;;;20.70;42.40;;;;;;5045956;28;19916;-60
2022/04/07 01:38:29;;;;;;;;;;;20.90;42.00;;;;;;5061290;28;19916;-60
2022/04/07 01:40:54;;;;;;;;;;;21.10;41.80;;;;;;5047696;28;19917;-60
2022/04/07 01:43:20;;;;;;;;;;;21.20;41.40;;;;;;5048746;28;19913;-60
2022/04/07 01:45:45;;;;;;;;;;;21.30;41.20;;;;;;5062887;28;19963;-60
2022/04/07 01:48:10;;;;;;;;;;;21.40;41.00;;;;;;5047302;28;20280;-60
2022/04/07 01:50:36;;;;;;;;;;;21.50;40.80;;;;;;5040010;28;19916;-60
2022/04/07 01:53:02;;;;;;;;;;;21.60;40.80;;;;;;5043033;28;19913;-60
2022/04/07 01:55:27;;;;;;;;;;;21.70;40.60;;;;;;5062195;28;20221;-60
2022/04/07 01:57:53;;;;;;;;;;;21.70;40.40;;;;;;5032876;28;20498;-60
2022/04/07 02:00:18;;;;;;;;;;;21.70;40.40;;;;;;5029862;28;19949;-60
2022/04/07 02:02:45;;;;;;;;;;;21.80;40.40;;;;;;5065248;28;20054;-60
2022/04/07 02:05:11;;;;;;;;;;;21.80;40.30;;;;;;5062811;28;19916;-60
2022/04/07 02:07:38;;;;;;;;;;;21.70;40.10;;;;;;5045582;28;20010;-60
2022/04/07 02:10:03;;;;;;;;;;;21.80;40.10;;;;;;5047092;28;19927;-60
2022/04/07 02:12:29;;;;;;;;;;;21.70;40.10;;;;;;5048233;28;19921;-60
2022/04/07 02:14:59;;;;;;;;;;;21.70;40.10;;;;;;5067625;28;20019;-60
2022/04/07 02:17:25;;;;;;;;;;;21.70;40.30;;;;;;5061918;28;19934;-60
2022/04/07 02:19:50;;;;;;;;;;;21.60;40.20;;;;;;5050167;28;20418;-60
2022/04/07 02:22:16;;;;;;;;;;;21.60;40.30;;;;;;5064264;28;20320;-60
2022/04/07 02:24:42;;;;;;;;;;;21.60;40.30;;;;;;5049101;28;20013;-60
2022/04/07 02:27:08;;;;;;;;;;;21.60;40.30;;;;;;5062744;28;19912;-60
2022/04/07 02:29:34;;;;;;;;;;;21.60;40.30;;;;;;5064931;28;19916;-60
2022/04/07 02:31:59;;;;;;;;;;;21.60;40.40;;;;;;5045370;28;20014;-60
2022/04/07 02:34:24;;;;;;;;;;;21.50;40.40;;;;;;5067907;28;20357;-60
2022/04/07 02:36:50;;;;;;;;;;;21.40;40.40;;;;;;5066334;28;19919;-59
2022/04/07 02:39:15;;;;;;;;;;;21.40;40.50;;;;;;5062049;28;19924;-60
2022/04/07 02:41:41;;;;;;;;;;;21.40;40.60;;;;;;5050703;28;19919;-60
2022/04/07 02:44:06;;;;;;;;;;;21.30;40.60;;;;;;5048338;28;19955;-60
2022/04/07 02:46:32;;;;;;;;;;;21.30;40.80;;;;;;5067657;28;19913;-60
2022/04/07 02:48:57;;;;;;;;;;;21.30;40.80;;;;;;5048295;28;19916;-60
2022/04/07 02:51:24;;;;;;;;;;;21.20;40.90;;;;;;5026695;28;19998;-60
2022/04/07 02:53:51;;;;;;;;;;;21.20;40.90;;;;;;5065179;28;19995;-60
2022/04/07 02:56:16;;;;;;;;;;;21.20;41.00;;;;;;5049289;28;20338;-60
2022/04/07 02:58:42;;;;;;;;;;;21.10;41.00;;;;;;5031044;28;20000;-60
2022/04/07 03:01:14;;;;;;;;;;;21.10;41.00;;;;;;5065458;28;19920;-60
2022/04/07 03:03:39;;;;;;;;;;;21.10;41.10;;;;;;5040728;28;19932;-60
2022/04/07 03:06:05;;;;;;;;;;;21.10;41.10;;;;;;5048509;28;20280;-60
2022/04/07 03:08:32;;;;;;;;;;;21.10;41.00;;;;;;5047442;28;19916;-60
2022/04/07 03:10:58;;;;;;;;;;;21.10;41.00;;;;;;5065358;28;19913;-60
2022/04/07 03:13:24;;;;;;;;;;;21.20;41.00;;;;;;5047138;28;19939;-60
2022/04/07 03:15:49;;;;;;;;;;;21.20;40.90;;;;;;5048975;28;19917;-60
2022/04/07 03:18:14;;;;;;;;;;;21.20;40.90;;;;;;5066483;28;20003;-60
2022/04/07 03:20:40;;;;;;;;;;;21.20;40.80;;;;;;5043937;28;19912;-60
2022/04/07 03:23:05;;;;;;;;;;;21.30;40.80;;;;;;5043352;28;19978;-60
2022/04/07 03:25:31;;;;;;;;;;;21.30;40.70;;;;;;5022655;28;19924;-60
2022/04/07 03:27:56;;;;;;;;;;;21.30;40.80;;;;;;5044090;28;19912;-60
2022/04/07 03:30:22;;;;;;;;;;;21.20;40.80;;;;;;5028255;28;19917;-60
2022/04/07 03:32:47;;;;;;;;;;;21.20;40.80;;;;;;5049244;28;19917;-60
2022/04/07 03:35:13;;;;;;;;;;;21.20;40.80;;;;;;5029545;28;20397;-60
2022/04/07 03:37:39;;;;;;;;;;;21.20;40.90;;;;;;5046752;28;19916;-60
2022/04/07 03:40:04;;;;;;;;;;;21.20;40.90;;;;;;5045593;28;19917;-60
2022/04/07 03:42:30;;;;;;;;;;;21.20;40.90;;;;;;5044441;28;20274;-60
2022/04/07 03:44:55;;;;;;;;;;;21.20;40.90;;;;;;5029971;28;20010;-60
2022/04/07 03:47:21;;;;;;;;;;;21.20;40.80;;;;;;5044524;28;19913;-60
2022/04/07 03:49:46;;;;;;;;;;;21.20;40.80;;;;;;5031711;28;20232;-60
2022/04/07 03:52:12;;;;;;;;;;;21.30;40.80;;;;;;5044893;28;19913;-60
2022/04/07 03:54:37;;;;;;;;;;;21.30;40.80;;;;;;5028879;28;20350;-60
2022/04/07 03:57:03;;;;;;;;;;;21.20;40.90;;;;;;5046443;28;20385;-60
2022/04/07 03:59:29;;;;;;;;;;;21.20;40.90;;;;;;5039690;28;19964;-60
2022/04/07 04:01:55;;;;;;;;;;;21.20;40.90;;;;;;5039724;28;20498;-60
2022/04/07 04:04:22;;;;;;;;;;;21.20;40.90;;;;;;5027184;28;19995;-60
2022/04/07 04:06:47;;;;;;;;;;;21.20;40.90;;;;;;5041627;28;20399;-60
2022/04/07 04:09:13;;;;;;;;;;;21.20;40.90;;;;;;5043757;28;19917;-60
2022/04/07 04:11:38;;;;;;;;;;;21.20;40.90;;;;;;5044701;28;20016;-60
2022/04/07 04:14:04;;;;;;;;;;;21.20;40.90;;;;;;5026863;28;19917;-60
2022/04/07 04:16:30;;;;;;;;;;;21.20;40.90;;;;;;5030262;28;19951;-60
2022/04/07 04:18:55;;;;;;;;;;;21.20;40.90;;;;;;5012248;28;19917;-60
2022/04/07 04:21:21;;;;;;;;;;;21.20;40.90;;;;;;5031557;28;19917;-60
2022/04/07 04:23:48;;;;;;;;;;;21.20;40.80;;;;;;5027295;28;19927;-60
2022/04/07 04:26:13;;;;;;;;;;;21.20;40.80;;;;;;5045295;28;19920;-60
2022/04/07 04:28:39;;;;;;;;;;;21.20;40.80;;;;;;5025228;28;19970;-60
2022/04/07 04:31:04;;;;;;;;;;;21.20;40.90;;;;;;5027166;28;19923;-60
2022/04/07 04:33:30;;;;;;;;;;;21.20;40.90;;;;;;5044843;28;19959;-60
2022/04/07 04:35:55;;;;;;;;;;;21.20;41.00;;;;;;5041034;28;19913;-60
2022/04/07 04:38:20;;;;;;;;;;;21.20;40.90;;;;;;5024550;28;19962;-60
2022/04/07 04:40:46;;;;;;;;;;;21.20;41.00;;;;;;5042154;28;20387;-60
2022/04/07 04:43:11;;;;;;;;;;;21.20;41.00;;;;;;5045562;28;20395;-60
2022/04/07 04:45:37;;;;;;;;;;;21.10;41.00;;;;;;5028383;28;19913;-60
2022/04/07 04:48:02;;;;;;;;;;;21.10;41.10;;;;;;5040745;28;20333;-60
2022/04/07 04:50:28;;;;;;;;;;;21.10;41.10;;;;;;5025458;28;20377;-60
2022/04/07 04:52:53;;;;;;;;;;;21.10;41.10;;;;;;5040075;28;19913;-60
2022/04/07 04:55:19;;;;;;;;;;;21.10;41.10;;;;;;5022970;28;19916;-60
2022/04/07 04:57:44;;;;;;;;;;;21.00;41.10;;;;;;5039094;28;19924;-60
2022/04/07 05:00:11;;;;;;;;;;;21.00;41.10;;;;;;5021307;28;20369;-60
2022/04/07 05:02:39;;;;;;;;;;;21.00;41.20;;;;;;5024452;28;19917;-60
2022/04/07 05:05:06;;;;;;;;;;;21.00;41.20;;;;;;5043691;28;19913;-60
2022/04/07 05:07:31;;;;;;;;;;;21.00;41.30;;;;;;5037434;28;20383;-60
2022/04/07 05:09:57;;;;;;;;;;;20.90;41.90;;;;;;5025570;28;19992;-60
2022/04/07 05:12:22;;;;;;;;;;;20.90;41.20;;;;;;5028242;28;19913;-60
2022/04/07 05:14:47;;;;;;;;;;;20.90;41.20;;;;;;5025396;28;20007;-60
2022/04/07 05:17:13;;;;;;;;;;;21.00;41.20;;;;;;5025383;28;19913;-60
2022/04/07 05:19:39;;;;;;;;;;;21.00;41.20;;;;;;5045435;28;20391;-60
2022/04/07 05:22:04;;;;;;;;;;;21.00;41.10;;;;;;5035455;28;19970;-60
2022/04/07 05:24:30;;;;;;;;;;;21.00;41.10;;;;;;5045067;28;19917;-60
2022/04/07 05:26:55;;;;;;;;;;;21.00;41.10;;;;;;5061277;28;20324;-60
2022/04/07 05:29:20;;;;;;;;;;;21.00;41.20;;;;;;5059773;28;20252;-60
2022/04/07 05:31:46;;;;;;;;;;;21.00;41.20;;;;;;5060040;28;19925;-60
2022/04/07 05:34:13;;;;;;;;;;;21.00;41.10;;;;;;5062514;28;20288;-60
2022/04/07 05:36:39;;;;;;;;;;;21.00;41.00;;;;;;5047503;28;20315;-60
2022/04/07 05:39:05;;;;;;;;;;;21.00;40.90;;;;;;5042265;28;19923;-60
2022/04/07 05:41:31;;;;;;;;;;;21.10;40.90;;;;;;5035800;28;19989;-60
2022/04/07 05:43:56;;;;;;;;;;;21.10;41.00;;;;;;5041667;28;19924;-60
2022/04/07 05:46:22;;;;;;;;;;;21.10;40.90;;;;;;5061255;28;20476;-60
2022/04/07 05:48:47;;;;;;;;;;;21.10;40.90;;;;;;5047675;28;19924;-60
2022/04/07 05:51:13;;;;;;;;;;;21.20;40.90;;;;;;5060691;28;19916;-60
2022/04/07 05:53:39;;;;;;;;;;;21.20;40.90;;;;;;5042469;28;20105;-60
2022/04/07 05:56:04;;;;;;;;;;;21.20;40.90;;;;;;5049476;28;20012;-60
2022/04/07 05:58:30;;;;;;;;;;;21.20;40.90;;;;;;5046739;28;20357;-60
2022/04/07 06:00:55;;;;;;;;;;;21.20;40.90;;;;;;5063727;28;19912;-60
2022/04/07 06:03:21;;;;;;;;;;;21.20;40.90;;;;;;5064472;28;19956;-60
2022/04/07 06:05:52;;;;;;;;;;;21.20;41.00;;;;;;5063386;28;19920;-61
2022/04/07 06:08:21;;;;;;;;;;;21.10;41.00;;;;;;5051011;28;20023;-60
2022/04/07 06:10:47;;;;;;;;;;;21.10;41.10;;;;;;5048458;28;20015;-60
2022/04/07 06:13:14;;;;;;;;;;;21.10;41.10;;;;;;5045899;28;19922;-60
2022/04/07 06:15:40;;;;;;;;;;;21.00;41.10;;;;;;5059112;28;19956;-60
2022/04/07 06:18:08;;;;;;;;;;;21.10;41.20;;;;;;5033417;28;19944;-60
2022/04/07 06:20:34;;;;;;;;;;;21.10;41.30;;;;;;5061309;28;20020;-60
2022/04/07 06:23:02;;;;;;;;;;;21.00;41.10;;;;;;5065542;28;19955;-60
2022/04/07 06:25:27;;;;;;;;;;;21.10;41.10;;;;;;5045511;28;20391;-60
2022/04/07 06:27:53;;;;;;;;;;;21.10;41.60;;;;;;5044663;28;19909;-60
2022/04/07 06:30:19;;;;;;;;;;;21.10;41.80;;;;;;5038642;28;20114;-60
2022/04/07 06:32:44;;;;;;;;;;;21.40;41.60;;;;;;5053221;28;19912;-60
2022/04/07 06:35:11;;;;;;;;;;;21.80;41.10;;;;;;5053054;28;19916;-60
2022/04/07 06:37:53;;;;;;;;;;;22.10;40.40;;;;;;5040097;28;19916;-59
2022/04/07 06:40:20;;;;;;;;;;;22.40;40.00;;;;;;5068097;28;19979;-61
2022/04/07 06:42:46;;;;;;;;;;;22.60;39.50;;;;;;5036024;28;19985;-59
2022/04/07 06:45:11;;;;;;;;;;;22.80;39.20;;;;;;5050614;28;20422;-60
2022/04/07 06:47:38;;;;;;;;;;;23.00;39.00;;;;;;5052919;28;19971;-60
2022/04/07 06:50:04;;;;;;;;;;;23.20;38.70;;;;;;5036335;28;19980;-60
2022/04/07 06:52:30;;;;;;;;;;;23.30;38.60;;;;;;5071213;28;19983;-62
2022/04/07 06:54:55;;;;;;;;;;;23.40;38.40;;;;;;5052068;28;20046;-61
2022/04/07 06:57:21;;;;;;;;;;;23.50;38.30;;;;;;5055461;28;19915;-61
2022/04/07 06:59:46;;;;;;;;;;;23.50;38.20;;;;;;5074481;28;19912;-60
2022/04/07 07:02:11;;;;;;;;;;;23.50;38.10;;;;;;5073537;28;19913;-61
2022/04/07 07:04:37;;;;;;;;;;;23.60;38.00;;;;;;5056641;28;19915;-60
2022/04/07 07:07:02;;;;;;;;;;;23.70;38.00;;;;;;5056841;28;19909;-60
2022/04/07 07:09:28;;;;;;;;;;;23.70;37.80;;;;;;5066777;28;20360;-61
2022/04/07 07:11:53;;;;;;;;;;;23.80;37.70;;;;;;5057136;28;19980;-60
2022/04/07 07:14:19;;;;;;;;;;;23.80;37.70;;;;;;5085714;28;19920;-60
2022/04/07 07:16:44;;;;;;;;;;;23.80;37.70;;;;;;5090817;28;20631;-61
2022/04/07 07:19:10;;;;;;;;;;;23.80;37.50;;;;;;5056407;28;20287;-60
2022/04/07 07:21:36;;;;;;;;;;;23.90;37.50;;;;;;5067148;28;19986;-62
2022/04/07 07:24:01;;;;;;;;;;;23.90;37.40;;;;;;5073410;28;20318;-60
2022/04/07 07:26:27;;;;;;;;;;;24.00;37.40;;;;;;5074123;28;19909;-61
2022/04/07 07:28:52;;;;;;;;;;;24.00;37.30;;;;;;5039277;28;19935;-62
2022/04/07 07:31:18;;;;;;;;;;;24.00;37.30;;;;;;5056044;28;19912;-61
2022/04/07 07:33:43;;;;;;;;;;;24.00;37.20;;;;;;5056270;28;19974;-62
2022/04/07 07:36:09;;;;;;;;;;;24.00;37.20;;;;;;5056080;28;19908;-62
2022/04/07 07:38:34;;;;;;;;;;;24.00;37.20;;;;;;5073429;28;19913;-62
2022/04/07 07:41:01;;;;;;;;;;;24.10;37.20;;;;;;5074199;28;19909;-61
2022/04/07 07:43:26;;;;;;;;;;;24.10;37.00;;;;;;5055857;28;19908;-60
2022/04/07 07:45:51;;;;;;;;;;;24.10;36.90;;;;;;5073841;28;20291;-61
2022/04/07 07:48:18;;;;;;;;;;;24.20;36.90;;;;;;5055921;28;19978;-62
2022/04/07 07:50:45;;;;;;;;;;;24.20;36.90;;;;;;5059689;28;20275;-62
2022/04/07 07:53:11;;;;;;;;;;;24.20;37.00;;;;;;5069692;28;19962;-63
2022/04/07 07:55:37;;;;;;;;;;;24.30;37.00;;;;;;5073679;28;19913;-62
2022/04/07 07:58:03;;;;;;;;;;;24.30;37.10;;;;;;5073792;28;19915;-62
2022/04/07 08:00:29;;;;;;;;;;;24.30;37.00;;;;;;5055363;28;20351;-62
2022/04/07 08:02:54;;;;;;;;;;;24.30;37.00;;;;;;5053473;28;20364;-62
2022/04/07 08:05:20;;;;;;;;;;;24.30;37.00;;;;;;5053863;28;20275;-61
2022/04/07 08:07:45;;;;;;;;;;;24.30;36.80;;;;;;5051146;28;20327;-62
2022/04/07 08:10:10;;;;;;;;;;;24.30;36.80;;;;;;5036869;28;20434;-61
2022/04/07 08:12:36;;;;;;;;;;;24.40;36.80;;;;;;5053674;28;19913;-63
2022/04/07 08:15:02;;;;;;;;;;;24.40;36.80;;;;;;5054142;28;19957;-63
2022/04/07 08:17:27;;;;;;;;;;;24.40;36.70;;;;;;5055313;28;20267;-62
2022/04/07 08:19:53;;;;;;;;;;;24.40;36.80;;;;;;5061363;28;19913;-62
2022/04/07 08:22:18;;;;;;;;;;;24.40;36.80;;;;;;5075111;28;20017;-62
2022/04/07 08:24:44;;;;;;;;;;;24.40;36.80;;;;;;5051126;28;19984;-60
2022/04/07 08:27:09;;;;;;;;;;;24.40;36.70;;;;;;5068814;28;19935;-62
2022/04/07 08:29:35;;;;;;;;;;;24.40;37.40;;;;;;5055086;28;19916;-62
2022/04/07 08:32:00;;;;;;;;;;;24.40;36.70;;;;;;5072781;28;20306;-61
2022/04/07 08:34:28;;;;;;;;;;;24.40;36.70;;;;;;5054492;28;21402;-62
2022/04/07 08:36:53;;;;;;;;;;;24.50;36.70;;;;;;5073192;28;20008;-62
2022/04/07 08:39:19;;;;;;;;;;;24.50;36.60;;;;;;5071767;28;19920;-62
2022/04/07 08:41:45;;;;;;;;;;;24.50;36.50;;;;;;5052514;28;19916;-62
2022/04/07 08:44:11;;;;;;;;;;;24.50;36.50;;;;;;5044443;28;19932;-62
2022/04/07 08:46:36;;;;;;;;;;;24.60;36.60;;;;;;5067887;28;19955;-61
2022/04/07 08:49:03;;;;;;;;;;;24.70;36.30;;;;;;5059332;28;19917;-62
2022/04/07 08:51:29;;;;;;;;;;;24.80;36.20;;;;;;5072446;28;19909;-63
2022/04/07 08:53:54;;;;;;;;;;;24.90;36.00;;;;;;5049433;28;19924;-63
2022/04/07 08:56:20;;;;;;;;;;;25.00;35.80;;;;;;5034850;28;19961;-62
2022/04/07 08:58:45;;;;;;;;;;;25.10;35.60;;;;;;5052335;28;20287;-63
2022/04/07 09:01:11;;;;;;;;;;;25.10;35.50;;;;;;5071123;28;20011;-62
2022/04/07 09:03:36;;;;;;;;;;;25.20;35.60;;;;;;5072038;28;19919;-62
2022/04/07 09:06:02;;;;;;;;;;;25.20;35.60;;;;;;5071825;28;19912;-62
2022/04/07 09:08:32;;;;;;;;;;;25.20;35.70;;;;;;5071790;28;20471;-62
2022/04/07 09:10:58;;;;;;;;;;;25.20;35.70;;;;;;5053981;28;19920;-61
2022/04/07 09:13:23;;;;;;;;;;;25.10;35.80;;;;;;5048435;28;19919;-62
2022/04/07 09:15:49;;;;;;;;;;;25.10;36.00;;;;;;5047652;28;20376;-63
2022/04/07 09:18:21;;;;;;;;;;;25.10;36.10;;;;;;5054239;28;19913;-62
2022/04/07 09:20:47;;;;;;;;;;;25.00;36.10;;;;;;5071924;28;19920;-63
2022/04/07 09:23:13;;;;;;;;;;;24.90;36.20;;;;;;5051181;28;19966;-62
2022/04/07 09:25:43;;;;;;;;;;;24.90;36.30;;;;;;5028248;28;19920;-61
2022/04/07 09:28:10;;;;;;;;;;;24.90;36.30;;;;;;5027707;28;19944;-61
2022/04/07 09:30:36;;;;;;;;;;;24.80;36.30;;;;;;5040177;28;19971;-62
2022/04/07 09:33:01;;;;;;;;;;;24.90;36.40;;;;;;5051549;28;20327;-63
2022/04/07 09:35:27;;;;;;;;;;;24.80;36.30;;;;;;5026590;28;19913;-62
2022/04/07 09:37:52;;;;;;;;;;;24.80;36.30;;;;;;5051290;28;20373;-61
2022/04/07 09:40:18;;;;;;;;;;;24.80;36.30;;;;;;5027107;28;20337;-62
2022/04/07 09:42:43;;;;;;;;;;;24.90;36.30;;;;;;5024116;28;20281;-61
2022/04/07 09:45:11;;;;;;;;;;;24.90;36.30;;;;;;5014151;28;19913;-61
2022/04/07 09:47:41;;;;;;;;;;;24.90;36.20;;;;;;5013102;28;19959;-62
2022/04/07 09:50:07;;;;;;;;;;;24.90;36.20;;;;;;5024706;28;19979;-61
2022/04/07 09:52:32;;;;;;;;;;;24.90;36.20;;;;;;5050764;28;19913;-61
2022/04/07 09:55:02;;;;;;;;;;;24.90;36.20;;;;;;5033173;28;20397;-60
2022/04/07 09:57:28;;;;;;;;;;;25.00;36.20;;;;;;5031140;28;19909;-61
2022/04/07 09:59:53;;;;;;;;;;;24.90;36.20;;;;;;5043031;28;19920;-61
2022/04/07 10:02:19;;;;;;;;;;;24.90;36.20;;;;;;5050968;28;20011;-61
2022/04/07 10:04:44;;;;;;;;;;;24.90;36.20;;;;;;5028797;28;19924;-61
2022/04/07 10:07:11;;;;;;;;;;;24.90;36.30;;;;;;5016241;28;20457;-62
2022/04/07 10:09:38;;;;;;;;;;;24.90;36.30;;;;;;5050365;28;20016;-62
2022/04/07 10:12:03;;;;;;;;;;;24.90;36.30;;;;;;5033234;28;20295;-62
2022/04/07 10:14:30;;;;;;;;;;;24.90;36.20;;;;;;5051508;28;19923;-62
2022/04/07 10:16:55;;;;;;;;;;;24.90;36.20;;;;;;5040555;28;19913;-61
2022/04/07 10:19:39;;;;;;;;;;;24.90;36.20;;;;;;5033361;28;19915;-62
2022/04/07 10:22:24;;;;;;;;;;;24.90;36.20;;;;;;5061155;28;19928;-61
2022/04/07 10:24:57;;;;;;;;;;;24.90;36.10;;;;;;5070239;28;19924;-61
2022/04/07 10:27:22;;;;;;;;;;;24.90;36.10;;;;;;5048407;28;19915;-62
2022/04/07 10:30:03;;;;;;;;;;;24.90;36.10;;;;;;5053502;28;19916;-62
2022/04/07 10:32:35;;;;;;;;;;;24.90;36.20;;;;;;5073684;28;19993;-62
2022/04/07 10:35:00;;;;;;;;;;;24.90;36.20;;;;;;5049865;28;19920;-62
2022/04/07 10:37:45;;;;;;;;;;;24.90;36.10;;;;;;5044327;28;20301;-62
2022/04/07 10:40:29;;;;;;;;;;;24.90;36.20;;;;;;5065166;28;19920;-61
2022/04/07 10:43:04;;;;;;;;;;;24.90;36.10;;;;;;5075137;28;19912;-61
2022/04/07 10:45:30;;;;;;;;;;;24.90;36.20;;;;;;5074735;28;19936;-63
2022/04/07 10:48:14;;;;;;;;;;;24.90;36.20;;;;;;5074978;28;20300;-62
2022/04/07 10:50:43;;;;;;;;;;;24.90;36.20;;;;;;5074833;28;19924;-62
2022/04/07 10:53:21;;;;;;;;;;;24.90;36.20;;;;;;5053199;28;19944;-62
2022/04/07 10:55:53;;;;;;;;;;;24.90;36.10;;;;;;5056169;28;19936;-62
2022/04/07 10:58:19;;;;;;;;;;;24.90;36.10;;;;;;5074342;28;19916;-61
2022/04/07 11:00:44;;;;;;;;;;;24.90;36.10;;;;;;5040565;28;19909;-64
2022/04/07 11:03:14;;;;;;;;;;;24.90;36.00;;;;;;5074690;28;19966;-61
2022/04/07 11:05:53;;;;;;;;;;;24.90;36.00;;;;;;5074582;28;19958;-62
2022/04/07 11:08:22;;;;;;;;;;;25.00;35.80;;;;;;5055765;28;19951;-62
2022/04/07 11:10:48;;;;;;;;;;;25.10;35.70;;;;;;5055864;28;19928;-60
2022/04/07 11:13:13;;;;;;;;;;;25.20;35.50;;;;;;5068956;28;19913;-61
2022/04/07 11:15:51;;;;;;;;;;;25.30;35.30;;;;;;5052961;28;20272;-61
2022/04/07 11:18:20;;;;;;;;;;;25.40;35.20;;;;;;5056197;28;19955;-62
2022/04/07 11:21:02;;;;;;;;;;;25.50;35.00;;;;;;5056033;28;19912;-62
2022/04/07 11:23:41;;;;;;;;;;;25.60;34.90;;;;;;5052707;28;19927;-62
2022/04/07 11:26:10;;;;;;;;;;;25.60;34.70;;;;;;5038237;28;19959;-61
2022/04/07 11:28:37;;;;;;;;;;;25.70;34.70;;;;;;5056537;28;19909;-61
2022/04/07 11:31:04;;;;;;;;;;;25.80;34.60;;;;;;5073634;28;20364;-61
2022/04/07 11:33:30;;;;;;;;;;;25.80;34.50;;;;;;5039178;28;19921;-63
2022/04/07 11:35:59;;;;;;;;;;;25.90;34.50;;;;;;5073921;28;20360;-63
2022/04/07 11:38:57;;;;;;;;;;;25.90;34.50;;;;;;5073476;28;19920;-63
2022/04/07 11:41:22;;;;;;;;;;;25.90;34.50;;;;;;5012614;28;19913;-62
2022/04/07 11:43:48;;;;;;;;;;;25.90;34.60;;;;;;5073393;28;20471;-61
2022/04/07 11:46:14;;;;;;;;;;;25.90;34.70;;;;;;5073874;28;20015;-62
2022/04/07 11:48:40;;;;;;;;;;;25.80;34.60;;;;;;5050011;28;19988;-62
2022/04/07 11:51:10;;;;;;;;;;;25.80;34.80;;;;;;5051659;28;20016;-62
2022/04/07 11:53:37;;;;;;;;;;;25.70;34.90;;;;;;5051154;28;19909;-61
2022/04/07 11:56:20;;;;;;;;;;;25.70;35.20;;;;;;5055337;28;19912;-60
2022/04/07 11:58:54;;;;;;;;;;;25.60;35.20;;;;;;5080149;28;19912;-61
2022/04/07 12:01:20;;;;;;;;;;;25.50;35.40;;;;;;5055418;28;20356;-62
2022/04/07 12:03:49;;;;;;;;;;;25.40;35.70;;;;;;5042670;28;19913;-61
2022/04/07 12:06:15;;;;;;;;;;;25.30;35.80;;;;;;5073359;28;19942;-61
2022/04/07 12:08:41;;;;;;;;;;;25.30;35.80;;;;;;5050688;28;19912;-62
2022/04/07 12:11:06;;;;;;;;;;;25.30;35.90;;;;;;5072454;28;19920;-62
2022/04/07 12:13:32;;;;;;;;;;;25.30;35.80;;;;;;5055482;28;20295;-61
2022/04/07 12:15:58;;;;;;;;;;;25.40;35.80;;;;;;5053783;28;19935;-61
2022/04/07 12:18:24;;;;;;;;;;;25.40;35.80;;;;;;5055307;28;20473;-60
2022/04/07 12:20:56;;;;;;;;;;;25.40;35.80;;;;;;5073191;28;19917;-61
2022/04/07 12:23:25;;;;;;;;;;;25.40;36.50;;;;;;5072447;28;19924;-61
2022/04/07 12:25:55;;;;;;;;;;;25.40;35.80;;;;;;5073054;28;20443;-61
2022/04/07 12:28:21;;;;;;;;;;;25.40;35.80;;;;;;5038035;28;20355;-62
2022/04/07 12:30:47;;;;;;;;;;;25.50;35.90;;;;;;5054998;28;19917;-60
2022/04/07 12:33:31;;;;;;;;;;;25.40;35.90;;;;;;5052970;28;19958;-61
2022/04/07 12:35:57;;;;;;;;;;;25.40;35.90;;;;;;5073187;28;19913;-61
2022/04/07 12:38:22;;;;;;;;;;;25.50;35.90;;;;;;5072267;28;19985;-61
2022/04/07 12:40:49;;;;;;;;;;;25.40;35.90;;;;;;5054525;28;20044;-61
2022/04/07 12:43:15;;;;;;;;;;;25.40;36.00;;;;;;5054801;28;20422;-62
2022/04/07 12:45:56;;;;;;;;;;;25.40;36.00;;;;;;5070776;28;19940;-61
2022/04/07 12:48:23;;;;;;;;;;;25.40;36.10;;;;;;5037773;28;20018;-61
2022/04/07 12:50:48;;;;;;;;;;;25.40;36.00;;;;;;5065190;28;19969;-61
2022/04/07 12:53:30;;;;;;;;;;;25.50;36.10;;;;;;5043612;28;20607;-61
2022/04/07 12:55:55;;;;;;;;;;;25.50;36.10;;;;;;5070030;28;20430;-61
2022/04/07 12:58:27;;;;;;;;;;;25.40;36.10;;;;;;5055503;28;19912;-60
2022/04/07 13:00:59;;;;;;;;;;;25.40;36.20;;;;;;5085042;28;20439;-62
2022/04/07 13:03:28;;;;;;;;;;;25.40;36.10;;;;;;5050169;28;20384;-62
2022/04/07 13:05:54;;;;;;;;;;;25.40;36.30;;;;;;5057551;28;19924;-61
2022/04/07 13:08:19;;;;;;;;;;;25.40;36.30;;;;;;5085859;28;19912;-61
2022/04/07 13:10:45;;;;;;;;;;;25.40;36.30;;;;;;5067832;28;19931;-62
2022/04/07 13:13:10;;;;;;;;;;;25.40;36.20;;;;;;5057639;28;19956;-61
2022/04/07 13:15:36;;;;;;;;;;;25.40;36.20;;;;;;5061857;28;19972;-61
2022/04/07 13:18:02;;;;;;;;;;;25.30;36.20;;;;;;5086273;28;19916;-62
2022/04/07 13:20:28;;;;;;;;;;;25.40;36.40;;;;;;5053586;28;20279;-62
2022/04/07 13:22:54;;;;;;;;;;;25.40;36.30;;;;;;5070428;28;20011;-62
2022/04/07 13:25:20;;;;;;;;;;;25.50;36.10;;;;;;5049658;28;20346;-62
2022/04/07 13:27:45;;;;;;;;;;;25.60;36.00;;;;;;5067330;28;20441;-61
2022/04/07 13:30:12;;;;;;;;;;;25.60;35.80;;;;;;5052900;28;19924;-61
2022/04/07 13:32:38;;;;;;;;;;;25.80;35.80;;;;;;5083226;28;20322;-61
2022/04/07 13:35:04;;;;;;;;;;;25.80;35.70;;;;;;5047975;28;19913;-62
2022/04/07 13:37:29;;;;;;;;;;;25.90;35.60;;;;;;5073019;28;20429;-61
2022/04/07 13:39:55;;;;;;;;;;;25.90;35.50;;;;;;5077250;28;19912;-62
2022/04/07 13:42:20;;;;;;;;;;;25.90;35.40;;;;;;5088102;28;19909;-61
2022/04/07 13:44:46;;;;;;;;;;;25.90;35.40;;;;;;5057779;28;19908;-60
2022/04/07 13:47:11;;;;;;;;;;;25.90;35.40;;;;;;5069774;28;20011;-61
2022/04/07 13:49:37;;;;;;;;;;;25.90;35.70;;;;;;5075568;28;19994;-61
2022/04/07 13:52:02;;;;;;;;;;;25.90;35.40;;;;;;5078903;28;20334;-62
2022/04/07 13:54:28;;;;;;;;;;;25.90;35.40;;;;;;5053147;28;19912;-60
2022/04/07 13:56:53;;;;;;;;;;;25.90;35.60;;;;;;5064621;28;19913;-61
2022/04/07 13:59:19;;;;;;;;;;;25.80;35.60;;;;;;5046535;28;19920;-61
2022/04/07 14:01:45;;;;;;;;;;;25.80;35.70;;;;;;5077513;28;19989;-62
2022/04/07 14:04:10;;;;;;;;;;;25.80;35.70;;;;;;5061698;28;19908;-62
2022/04/07 14:06:35;;;;;;;;;;;25.80;35.70;;;;;;5078902;28;19912;-62
2022/04/07 14:09:01;;;;;;;;;;;25.80;35.70;;;;;;5072101;28;20441;-61
2022/04/07 14:11:26;;;;;;;;;;;25.80;35.80;;;;;;5070555;28;19916;-61
2022/04/07 14:13:52;;;;;;;;;;;25.90;35.80;;;;;;5076712;28;19915;-61